sensor_id;sensor_type;location;lat;lon;timestamp;temperature;humidity
26342;DHT22;14054;50.108;8.640;2023-11-19T00:01:10;8.00;99.90
26342;DHT22;14054;50.108;8.640;2023-11-19T00:03:36;7.90;99.90
26342;DHT22;14054;50.108;8.640;2023-11-19T00:06:01;7.90;99.90
26342;DHT22;14054;50.108;8.640;2023-11-19T00:08:28;7.90;99.90
26342;DHT22;14054;50.108;8.640;2023-11-19T00:10:54;7.90;99.90
26342;DHT22;14054;50.108;8.640;2023-11-19T00:13:19;8.00;99.90
26342;DHT22;14054;50.108;8.640;2023-11-19T00:15:44;8.00;99.90
26342;DHT22;14054;50.108;8.640;2023-11-19T00:18:10;8.00;99.90
26342;DHT22;14054;50.108;8.640;2023-11-19T00:20:36;8.00;99.90
26342;DHT22;14054;50.108;8.640;2023-11-19T00:23:01;8.00;99.90
26342;DHT22;14054;50.108;8.640;2023-11-19T00:25:27;8.00;99.90
26342;DHT22;14054;50.108;8.640;2023-11-19T00:27:53;8.00;99.90
26342;DHT22;14054;50.108;8.640;2023-11-19T00:30:19;8.10;99.90
26342;DHT22;14054;50.108;8.640;2023-11-19T00:32:44;8.00;99.90
26342;DHT22;14054;50.108;8.640;2023-11-19T00:35:10;8.10;99.90
26342;DHT22;14054;50.108;8.640;2023-11-19T00:37:36;8.10;99.90
26342;DHT22;14054;50.108;8.640;2023-11-19T00:40:02;8.10;99.90
26342;DHT22;14054;50.108;8.640;2023-11-19T00:42:30;8.10;99.90
26342;DHT22;14054;50.108;8.640;2023-11-19T00:44:56;8.10;99.90
26342;DHT22;14054;50.108;8.640;2023-11-19T00:47:21;8.10;99.90
26342;DHT22;14054;50.108;8.640;2023-11-19T00:49:47;8.10;99.90
26342;DHT22;14054;50.108;8.640;2023-11-19T00:52:17;8.10;99.90
26342;DHT22;14054;50.108;8.640;2023-11-19T00:54:43;8.10;99.90
26342;DHT22;14054;50.108;8.640;2023-11-19T00:57:08;8.10;99.90
26342;DHT22;14054;50.108;8.640;2023-11-19T00:59:34;8.10;99.90
26342;DHT22;14054;50.108;8.640;2023-11-19T01:01:59;8.10;99.90
26342;DHT22;14054;50.108;8.640;2023-11-19T01:04:29;8.20;99.90
26342;DHT22;14054;50.108;8.640;2023-11-19T01:06:54;8.20;99.90
26342;DHT22;14054;50.108;8.640;2023-11-19T01:09:20;8.20;99.90
26342;DHT22;14054;50.108;8.640;2023-11-19T01:11:45;8.20;99.90
26342;DHT22;14054;50.108;8.640;2023-11-19T01:14:11;8.20;99.90
26342;DHT22;14054;50.108;8.640;2023-11-19T01:16:36;8.20;99.90
26342;DHT22;14054;50.108;8.640;2023-11-19T01:19:02;8.20;99.90
26342;DHT22;14054;50.108;8.640;2023-11-19T01:21:30;8.20;99.90
26342;DHT22;14054;50.108;8.640;2023-11-19T01:23:57;8.20;99.90
26342;DHT22;14054;50.108;8.640;2023-11-19T01:26:22;8.20;99.90
26342;DHT22;14054;50.108;8.640;2023-11-19T01:28:48;8.20;99.90
26342;DHT22;14054;50.108;8.640;2023-11-19T01:31:17;8.20;99.90
26342;DHT22;14054;50.108;8.640;2023-11-19T01:33:42;8.30;99.90
26342;DHT22;14054;50.108;8.640;2023-11-19T01:36:08;8.30;99.90
26342;DHT22;14054;50.108;8.640;2023-11-19T01:38:35;8.30;99.90
26342;DHT22;14054;50.108;8.640;2023-11-19T01:41:01;8.30;99.90
26342;DHT22;14054;50.108;8.640;2023-11-19T01:43:38;8.30;99.90
26342;DHT22;14054;50.108;8.640;2023-11-19T01:46:09;8.30;99.90
26342;DHT22;14054;50.108;8.640;2023-11-19T01:48:41;8.30;99.90
26342;DHT22;14054;50.108;8.640;2023-11-19T01:51:08;8.30;99.90
26342;DHT22;14054;50.108;8.640;2023-11-19T01:53:36;8.40;99.90
26342;DHT22;14054;50.108;8.640;2023-11-19T01:56:02;8.40;99.90
26342;DHT22;14054;50.108;8.640;2023-11-19T01:58:29;8.40;99.90
26342;DHT22;14054;50.108;8.640;2023-11-19T02:00:56;8.40;99.90
26342;DHT22;14054;50.108;8.640;2023-11-19T02:03:23;8.40;99.90
26342;DHT22;14054;50.108;8.640;2023-11-19T02:05:50;8.40;99.90
26342;DHT22;14054;50.108;8.640;2023-11-19T02:08:16;8.40;99.90
26342;DHT22;14054;50.108;8.640;2023-11-19T02:10:42;8.40;99.90
26342;DHT22;14054;50.108;8.640;2023-11-19T02:13:08;8.40;99.90
26342;DHT22;14054;50.108;8.640;2023-11-19T02:15:35;8.40;99.90
26342;DHT22;14054;50.108;8.640;2023-11-19T02:18:25;8.50;99.90
26342;DHT22;14054;50.108;8.640;2023-11-19T02:20:56;8.50;99.90
26342;DHT22;14054;50.108;8.640;2023-11-19T02:23:22;8.50;99.90
26342;DHT22;14054;50.108;8.640;2023-11-19T02:28:23;8.50;99.90
26342;DHT22;14054;50.108;8.640;2023-11-19T02:30:48;8.50;99.90
26342;DHT22;14054;50.108;8.640;2023-11-19T02:33:14;8.50;99.90
26342;DHT22;14054;50.108;8.640;2023-11-19T02:35:40;8.60;99.90
26342;DHT22;14054;50.108;8.640;2023-11-19T02:38:06;8.50;99.90
26342;DHT22;14054;50.108;8.640;2023-11-19T02:40:32;8.50;99.90
26342;DHT22;14054;50.108;8.640;2023-11-19T02:42:57;8.60;99.90
26342;DHT22;14054;50.108;8.640;2023-11-19T02:45:23;8.60;99.90
26342;DHT22;14054;50.108;8.640;2023-11-19T02:47:49;8.60;99.90
26342;DHT22;14054;50.108;8.640;2023-11-19T02:50:16;8.60;99.90
26342;DHT22;14054;50.108;8.640;2023-11-19T02:52:45;8.60;99.90
26342;DHT22;14054;50.108;8.640;2023-11-19T02:55:11;8.60;99.90
26342;DHT22;14054;50.108;8.640;2023-11-19T02:57:41;8.60;99.90
26342;DHT22;14054;50.108;8.640;2023-11-19T03:00:23;8.60;99.90
26342;DHT22;14054;50.108;8.640;2023-11-19T03:03:01;8.70;99.90
26342;DHT22;14054;50.108;8.640;2023-11-19T03:05:35;8.70;99.90
26342;DHT22;14054;50.108;8.640;2023-11-19T03:08:01;8.70;99.90
26342;DHT22;14054;50.108;8.640;2023-11-19T03:10:26;8.70;99.90
26342;DHT22;14054;50.108;8.640;2023-11-19T03:12:52;8.80;99.90
26342;DHT22;14054;50.108;8.640;2023-11-19T03:15:17;8.80;99.90
26342;DHT22;14054;50.108;8.640;2023-11-19T03:17:43;8.80;99.90
26342;DHT22;14054;50.108;8.640;2023-11-19T03:20:11;8.80;99.90
26342;DHT22;14054;50.108;8.640;2023-11-19T03:22:40;8.80;99.90
26342;DHT22;14054;50.108;8.640;2023-11-19T03:25:07;8.80;99.90
26342;DHT22;14054;50.108;8.640;2023-11-19T03:27:34;8.90;99.90
26342;DHT22;14054;50.108;8.640;2023-11-19T03:30:01;8.80;99.90
26342;DHT22;14054;50.108;8.640;2023-11-19T03:32:27;8.90;99.90
26342;DHT22;14054;50.108;8.640;2023-11-19T03:34:52;8.90;99.90
26342;DHT22;14054;50.108;8.640;2023-11-19T03:37:18;8.90;99.90
26342;DHT22;14054;50.108;8.640;2023-11-19T03:39:44;8.90;99.90
26342;DHT22;14054;50.108;8.640;2023-11-19T03:42:10;8.90;99.90
26342;DHT22;14054;50.108;8.640;2023-11-19T03:44:38;8.90;99.90
26342;DHT22;14054;50.108;8.640;2023-11-19T03:47:04;8.90;99.90
26342;DHT22;14054;50.108;8.640;2023-11-19T03:49:29;8.90;99.90
26342;DHT22;14054;50.108;8.640;2023-11-19T03:51:55;9.00;99.90
26342;DHT22;14054;50.108;8.640;2023-11-19T03:54:20;9.00;99.90
26342;DHT22;14054;50.108;8.640;2023-11-19T03:56:49;9.00;99.90
26342;DHT22;14054;50.108;8.640;2023-11-19T03:59:14;9.00;99.90
26342;DHT22;14054;50.108;8.640;2023-11-19T04:01:41;9.00;99.90
26342;DHT22;14054;50.108;8.640;2023-11-19T04:04:06;9.00;99.90
26342;DHT22;14054;50.108;8.640;2023-11-19T04:06:32;9.00;99.90
26342;DHT22;14054;50.108;8.640;2023-11-19T04:08:57;9.00;99.90
26342;DHT22;14054;50.108;8.640;2023-11-19T04:11:23;9.00;99.90
26342;DHT22;14054;50.108;8.640;2023-11-19T04:13:48;9.10;99.90
26342;DHT22;14054;50.108;8.640;2023-11-19T04:16:14;9.10;99.90
26342;DHT22;14054;50.108;8.640;2023-11-19T04:18:40;9.10;99.90
26342;DHT22;14054;50.108;8.640;2023-11-19T04:21:07;9.10;99.90
26342;DHT22;14054;50.108;8.640;2023-11-19T04:23:32;9.10;99.90
26342;DHT22;14054;50.108;8.640;2023-11-19T04:25:58;9.20;99.90
26342;DHT22;14054;50.108;8.640;2023-11-19T04:28:23;9.20;99.90
26342;DHT22;14054;50.108;8.640;2023-11-19T04:30:52;9.10;99.90
26342;DHT22;14054;50.108;8.640;2023-11-19T04:33:17;9.20;99.90
26342;DHT22;14054;50.108;8.640;2023-11-19T04:35:43;9.20;99.90
26342;DHT22;14054;50.108;8.640;2023-11-19T04:38:08;9.20;99.90
26342;DHT22;14054;50.108;8.640;2023-11-19T04:40:34;9.20;99.90
26342;DHT22;14054;50.108;8.640;2023-11-19T04:42:59;9.20;99.90
26342;DHT22;14054;50.108;8.640;2023-11-19T04:45:25;9.20;99.90
26342;DHT22;14054;50.108;8.640;2023-11-19T04:47:50;9.30;99.90
26342;DHT22;14054;50.108;8.640;2023-11-19T04:50:16;9.30;99.90
26342;DHT22;14054;50.108;8.640;2023-11-19T04:52:41;9.30;99.90
26342;DHT22;14054;50.108;8.640;2023-11-19T04:55:10;9.30;99.90
26342;DHT22;14054;50.108;8.640;2023-11-19T04:57:37;9.30;99.90
26342;DHT22;14054;50.108;8.640;2023-11-19T05:00:03;9.30;99.90
26342;DHT22;14054;50.108;8.640;2023-11-19T05:02:30;9.30;99.90
26342;DHT22;14054;50.108;8.640;2023-11-19T05:04:55;9.30;99.90
26342;DHT22;14054;50.108;8.640;2023-11-19T05:07:21;9.30;99.90
26342;DHT22;14054;50.108;8.640;2023-11-19T05:09:46;9.30;99.90
26342;DHT22;14054;50.108;8.640;2023-11-19T05:12:12;9.30;99.90
26342;DHT22;14054;50.108;8.640;2023-11-19T05:14:38;9.40;99.90
26342;DHT22;14054;50.108;8.640;2023-11-19T05:17:04;9.40;99.90
26342;DHT22;14054;50.108;8.640;2023-11-19T05:19:29;9.40;99.90
26342;DHT22;14054;50.108;8.640;2023-11-19T05:21:55;9.40;99.90
26342;DHT22;14054;50.108;8.640;2023-11-19T05:24:20;9.40;99.90
26342;DHT22;14054;50.108;8.640;2023-11-19T05:26:46;9.40;99.90
26342;DHT22;14054;50.108;8.640;2023-11-19T05:29:12;9.40;99.90
26342;DHT22;14054;50.108;8.640;2023-11-19T05:31:37;9.40;99.90
26342;DHT22;14054;50.108;8.640;2023-11-19T05:34:03;9.50;99.90
26342;DHT22;14054;50.108;8.640;2023-11-19T05:36:29;9.50;99.90
26342;DHT22;14054;50.108;8.640;2023-11-19T05:38:55;9.50;99.90
26342;DHT22;14054;50.108;8.640;2023-11-19T05:41:20;9.50;99.90
26342;DHT22;14054;50.108;8.640;2023-11-19T05:43:46;9.50;99.90
26342;DHT22;14054;50.108;8.640;2023-11-19T05:46:11;9.50;99.90
26342;DHT22;14054;50.108;8.640;2023-11-19T05:48:38;9.50;99.90
26342;DHT22;14054;50.108;8.640;2023-11-19T05:51:04;9.50;99.90
26342;DHT22;14054;50.108;8.640;2023-11-19T05:53:31;9.50;99.90
26342;DHT22;14054;50.108;8.640;2023-11-19T05:55:57;9.60;99.90
26342;DHT22;14054;50.108;8.640;2023-11-19T05:58:24;9.60;99.90
26342;DHT22;14054;50.108;8.640;2023-11-19T06:00:51;9.60;99.90
26342;DHT22;14054;50.108;8.640;2023-11-19T06:03:16;9.60;99.90
26342;DHT22;14054;50.108;8.640;2023-11-19T06:05:44;9.60;99.90
26342;DHT22;14054;50.108;8.640;2023-11-19T06:08:11;9.60;99.90
26342;DHT22;14054;50.108;8.640;2023-11-19T06:10:39;9.60;99.90
26342;DHT22;14054;50.108;8.640;2023-11-19T06:13:04;9.60;99.90
26342;DHT22;14054;50.108;8.640;2023-11-19T06:15:30;9.60;99.90
26342;DHT22;14054;50.108;8.640;2023-11-19T06:17:58;9.70;99.90
26342;DHT22;14054;50.108;8.640;2023-11-19T06:20:24;9.60;99.90
26342;DHT22;14054;50.108;8.640;2023-11-19T06:22:50;9.70;99.90
26342;DHT22;14054;50.108;8.640;2023-11-19T06:25:16;9.70;99.90
26342;DHT22;14054;50.108;8.640;2023-11-19T06:27:42;9.70;99.90
26342;DHT22;14054;50.108;8.640;2023-11-19T06:30:08;9.70;99.90
26342;DHT22;14054;50.108;8.640;2023-11-19T06:32:34;9.70;99.90
26342;DHT22;14054;50.108;8.640;2023-11-19T06:34:59;9.70;99.90
26342;DHT22;14054;50.108;8.640;2023-11-19T06:37:25;9.70;99.90
26342;DHT22;14054;50.108;8.640;2023-11-19T06:39:50;9.70;99.90
26342;DHT22;14054;50.108;8.640;2023-11-19T06:42:16;9.80;99.90
26342;DHT22;14054;50.108;8.640;2023-11-19T06:44:42;9.70;99.90
26342;DHT22;14054;50.108;8.640;2023-11-19T06:47:08;9.80;99.90
26342;DHT22;14054;50.108;8.640;2023-11-19T06:49:33;9.80;99.90
26342;DHT22;14054;50.108;8.640;2023-11-19T06:51:59;9.80;99.90
26342;DHT22;14054;50.108;8.640;2023-11-19T06:54:24;9.80;99.90
26342;DHT22;14054;50.108;8.640;2023-11-19T06:56:49;9.80;99.90
26342;DHT22;14054;50.108;8.640;2023-11-19T06:59:15;9.90;99.90
26342;DHT22;14054;50.108;8.640;2023-11-19T07:01:41;9.90;99.90
26342;DHT22;14054;50.108;8.640;2023-11-19T07:04:11;9.90;99.90
26342;DHT22;14054;50.108;8.640;2023-11-19T07:06:37;9.90;99.90
26342;DHT22;14054;50.108;8.640;2023-11-19T07:09:04;9.90;99.90
26342;DHT22;14054;50.108;8.640;2023-11-19T07:11:39;9.90;99.90
26342;DHT22;14054;50.108;8.640;2023-11-19T07:14:05;10.00;99.90
26342;DHT22;14054;50.108;8.640;2023-11-19T07:16:35;10.00;99.90
26342;DHT22;14054;50.108;8.640;2023-11-19T07:19:03;10.00;99.90
26342;DHT22;14054;50.108;8.640;2023-11-19T07:21:28;10.10;99.90
26342;DHT22;14054;50.108;8.640;2023-11-19T07:23:57;10.20;99.90
26342;DHT22;14054;50.108;8.640;2023-11-19T07:26:23;10.20;99.90
26342;DHT22;14054;50.108;8.640;2023-11-19T07:28:49;10.30;99.90
26342;DHT22;14054;50.108;8.640;2023-11-19T07:31:15;10.30;99.90
26342;DHT22;14054;50.108;8.640;2023-11-19T07:33:41;10.30;99.90
26342;DHT22;14054;50.108;8.640;2023-11-19T07:36:10;10.30;99.90
26342;DHT22;14054;50.108;8.640;2023-11-19T07:38:36;10.30;99.90
26342;DHT22;14054;50.108;8.640;2023-11-19T07:41:02;10.40;99.90
26342;DHT22;14054;50.108;8.640;2023-11-19T07:43:27;10.40;99.90
26342;DHT22;14054;50.108;8.640;2023-11-19T07:45:53;10.40;99.90
26342;DHT22;14054;50.108;8.640;2023-11-19T07:48:19;10.40;99.90
26342;DHT22;14054;50.108;8.640;2023-11-19T07:50:49;10.40;99.90
26342;DHT22;14054;50.108;8.640;2023-11-19T07:53:18;10.50;99.90
26342;DHT22;14054;50.108;8.640;2023-11-19T07:55:44;10.50;99.90
26342;DHT22;14054;50.108;8.640;2023-11-19T07:58:10;10.50;99.90
26342;DHT22;14054;50.108;8.640;2023-11-19T08:00:36;10.50;99.90
26342;DHT22;14054;50.108;8.640;2023-11-19T08:03:03;10.50;99.90
26342;DHT22;14054;50.108;8.640;2023-11-19T08:05:28;10.50;99.90
26342;DHT22;14054;50.108;8.640;2023-11-19T08:07:54;10.60;99.90
26342;DHT22;14054;50.108;8.640;2023-11-19T08:10:19;10.60;99.90
26342;DHT22;14054;50.108;8.640;2023-11-19T08:12:45;10.70;99.90
26342;DHT22;14054;50.108;8.640;2023-11-19T08:15:11;10.80;99.90
26342;DHT22;14054;50.108;8.640;2023-11-19T08:17:37;10.80;99.90
26342;DHT22;14054;50.108;8.640;2023-11-19T08:20:03;10.90;99.90
26342;DHT22;14054;50.108;8.640;2023-11-19T08:22:30;10.90;99.90
26342;DHT22;14054;50.108;8.640;2023-11-19T08:24:56;11.00;99.90
26342;DHT22;14054;50.108;8.640;2023-11-19T08:27:21;11.00;99.90
26342;DHT22;14054;50.108;8.640;2023-11-19T08:29:55;11.10;99.90
26342;DHT22;14054;50.108;8.640;2023-11-19T08:32:22;11.20;99.90
26342;DHT22;14054;50.108;8.640;2023-11-19T08:34:48;11.20;99.90
26342;DHT22;14054;50.108;8.640;2023-11-19T08:37:13;11.10;99.90
26342;DHT22;14054;50.108;8.640;2023-11-19T08:39:39;11.10;99.90
26342;DHT22;14054;50.108;8.640;2023-11-19T08:42:06;11.10;99.90
26342;DHT22;14054;50.108;8.640;2023-11-19T08:44:32;11.10;99.90
26342;DHT22;14054;50.108;8.640;2023-11-19T08:46:57;11.20;99.90
26342;DHT22;14054;50.108;8.640;2023-11-19T08:49:23;11.20;99.90
26342;DHT22;14054;50.108;8.640;2023-11-19T08:51:49;11.30;99.90
26342;DHT22;14054;50.108;8.640;2023-11-19T08:54:14;11.30;99.90
26342;DHT22;14054;50.108;8.640;2023-11-19T08:56:40;11.30;99.90
26342;DHT22;14054;50.108;8.640;2023-11-19T08:59:05;11.40;99.90
26342;DHT22;14054;50.108;8.640;2023-11-19T09:01:31;11.40;99.90
26342;DHT22;14054;50.108;8.640;2023-11-19T09:03:56;11.50;99.90
26342;DHT22;14054;50.108;8.640;2023-11-19T09:06:22;11.40;99.90
26342;DHT22;14054;50.108;8.640;2023-11-19T09:08:48;11.40;99.90
26342;DHT22;14054;50.108;8.640;2023-11-19T09:11:13;11.50;99.90
26342;DHT22;14054;50.108;8.640;2023-11-19T09:13:39;11.50;99.90
26342;DHT22;14054;50.108;8.640;2023-11-19T09:16:05;11.50;99.90
26342;DHT22;14054;50.108;8.640;2023-11-19T09:18:30;11.60;99.90
26342;DHT22;14054;50.108;8.640;2023-11-19T09:20:57;11.60;99.90
26342;DHT22;14054;50.108;8.640;2023-11-19T09:23:23;11.80;99.90
26342;DHT22;14054;50.108;8.640;2023-11-19T09:25:50;11.90;99.90
26342;DHT22;14054;50.108;8.640;2023-11-19T09:28:16;12.00;99.90
26342;DHT22;14054;50.108;8.640;2023-11-19T09:30:41;12.20;99.90
26342;DHT22;14054;50.108;8.640;2023-11-19T09:33:06;12.40;99.90
26342;DHT22;14054;50.108;8.640;2023-11-19T09:35:32;12.60;99.90
26342;DHT22;14054;50.108;8.640;2023-11-19T09:37:58;12.60;99.90
26342;DHT22;14054;50.108;8.640;2023-11-19T09:40:24;12.70;99.90
26342;DHT22;14054;50.108;8.640;2023-11-19T09:42:50;12.80;99.90
26342;DHT22;14054;50.108;8.640;2023-11-19T09:45:16;13.00;99.90
26342;DHT22;14054;50.108;8.640;2023-11-19T09:47:44;13.20;99.90
26342;DHT22;14054;50.108;8.640;2023-11-19T09:50:14;13.40;99.90
26342;DHT22;14054;50.108;8.640;2023-11-19T09:52:41;13.50;99.90
26342;DHT22;14054;50.108;8.640;2023-11-19T09:55:06;13.50;99.90
26342;DHT22;14054;50.108;8.640;2023-11-19T09:57:33;13.60;99.90
26342;DHT22;14054;50.108;8.640;2023-11-19T10:00:00;13.70;99.90
26342;DHT22;14054;50.108;8.640;2023-11-19T10:02:30;13.70;99.90
26342;DHT22;14054;50.108;8.640;2023-11-19T10:04:57;13.70;99.90
26342;DHT22;14054;50.108;8.640;2023-11-19T10:07:24;13.50;99.90
26342;DHT22;14054;50.108;8.640;2023-11-19T10:09:50;13.60;99.90
26342;DHT22;14054;50.108;8.640;2023-11-19T10:12:15;13.50;99.90
26342;DHT22;14054;50.108;8.640;2023-11-19T10:14:43;13.50;99.90
26342;DHT22;14054;50.108;8.640;2023-11-19T10:17:09;13.60;99.90
26342;DHT22;14054;50.108;8.640;2023-11-19T10:19:35;13.80;99.90
26342;DHT22;14054;50.108;8.640;2023-11-19T10:22:07;13.90;99.90
26342;DHT22;14054;50.108;8.640;2023-11-19T10:24:33;14.00;99.90
26342;DHT22;14054;50.108;8.640;2023-11-19T10:27:00;14.20;99.90
26342;DHT22;14054;50.108;8.640;2023-11-19T10:29:26;14.50;99.90
26342;DHT22;14054;50.108;8.640;2023-11-19T10:31:58;14.50;99.90
26342;DHT22;14054;50.108;8.640;2023-11-19T10:34:27;14.50;99.90
26342;DHT22;14054;50.108;8.640;2023-11-19T10:36:53;14.70;99.90
26342;DHT22;14054;50.108;8.640;2023-11-19T10:39:19;14.60;99.90
26342;DHT22;14054;50.108;8.640;2023-11-19T10:41:46;14.70;99.90
26342;DHT22;14054;50.108;8.640;2023-11-19T10:44:12;14.90;99.90
26342;DHT22;14054;50.108;8.640;2023-11-19T10:46:42;15.00;99.90
26342;DHT22;14054;50.108;8.640;2023-11-19T10:49:09;15.20;99.90
26342;DHT22;14054;50.108;8.640;2023-11-19T10:51:36;15.20;99.90
26342;DHT22;14054;50.108;8.640;2023-11-19T10:54:05;15.40;99.90
26342;DHT22;14054;50.108;8.640;2023-11-19T10:56:33;15.40;99.90
26342;DHT22;14054;50.108;8.640;2023-11-19T10:58:59;16.40;99.90
26342;DHT22;14054;50.108;8.640;2023-11-19T11:01:36;17.90;99.90
26342;DHT22;14054;50.108;8.640;2023-11-19T11:04:03;18.20;99.90
26342;DHT22;14054;50.108;8.640;2023-11-19T11:06:30;19.20;99.90
26342;DHT22;14054;50.108;8.640;2023-11-19T11:08:56;19.70;99.90
26342;DHT22;14054;50.108;8.640;2023-11-19T11:11:21;20.50;99.90
26342;DHT22;14054;50.108;8.640;2023-11-19T11:13:50;20.70;99.90
26342;DHT22;14054;50.108;8.640;2023-11-19T11:16:18;21.00;99.90
26342;DHT22;14054;50.108;8.640;2023-11-19T11:18:45;20.20;97.60
26342;DHT22;14054;50.108;8.640;2023-11-19T11:21:13;18.80;99.10
26342;DHT22;14054;50.108;8.640;2023-11-19T11:29:00;17.00;99.90
26342;DHT22;14054;50.108;8.640;2023-11-19T11:31:42;16.50;99.90
26342;DHT22;14054;50.108;8.640;2023-11-19T11:37:21;17.10;99.90
26342;DHT22;14054;50.108;8.640;2023-11-19T11:39:46;17.50;99.90
26342;DHT22;14054;50.108;8.640;2023-11-19T11:42:31;16.40;99.90
26342;DHT22;14054;50.108;8.640;2023-11-19T11:45:00;15.90;99.90
26342;DHT22;14054;50.108;8.640;2023-11-19T11:50:22;15.40;99.90
26342;DHT22;14054;50.108;8.640;2023-11-19T11:55:24;15.20;99.90
26342;DHT22;14054;50.108;8.640;2023-11-19T11:57:50;15.00;99.90
26342;DHT22;14054;50.108;8.640;2023-11-19T12:02:49;15.00;99.90
26342;DHT22;14054;50.108;8.640;2023-11-19T12:05:15;14.80;99.90
26342;DHT22;14054;50.108;8.640;2023-11-19T12:07:41;14.70;99.90
26342;DHT22;14054;50.108;8.640;2023-11-19T12:10:08;14.50;99.90
26342;DHT22;14054;50.108;8.640;2023-11-19T12:12:34;14.40;99.90
26342;DHT22;14054;50.108;8.640;2023-11-19T12:15:02;14.30;99.90
26342;DHT22;14054;50.108;8.640;2023-11-19T12:20:06;14.10;99.90
26342;DHT22;14054;50.108;8.640;2023-11-19T12:22:36;14.10;99.90
26342;DHT22;14054;50.108;8.640;2023-11-19T12:25:02;14.20;99.90
26342;DHT22;14054;50.108;8.640;2023-11-19T12:27:29;14.20;99.90
26342;DHT22;14054;50.108;8.640;2023-11-19T12:29:55;14.40;99.90
26342;DHT22;14054;50.108;8.640;2023-11-19T12:32:22;14.40;99.90
26342;DHT22;14054;50.108;8.640;2023-11-19T12:34:47;14.40;99.90
26342;DHT22;14054;50.108;8.640;2023-11-19T12:37:13;14.60;99.90
26342;DHT22;14054;50.108;8.640;2023-11-19T12:39:39;14.60;99.90
26342;DHT22;14054;50.108;8.640;2023-11-19T12:42:05;14.60;99.90
26342;DHT22;14054;50.108;8.640;2023-11-19T12:44:31;14.70;99.90
26342;DHT22;14054;50.108;8.640;2023-11-19T12:47:04;14.90;99.90
26342;DHT22;14054;50.108;8.640;2023-11-19T12:49:32;15.10;99.90
26342;DHT22;14054;50.108;8.640;2023-11-19T12:51:58;16.70;99.90
26342;DHT22;14054;50.108;8.640;2023-11-19T12:54:35;19.70;99.90
26342;DHT22;14054;50.108;8.640;2023-11-19T12:57:02;21.60;93.70
26342;DHT22;14054;50.108;8.640;2023-11-19T12:59:28;22.50;88.30
26342;DHT22;14054;50.108;8.640;2023-11-19T13:01:57;23.90;82.70
26342;DHT22;14054;50.108;8.640;2023-11-19T13:04:27;24.70;77.80
26342;DHT22;14054;50.108;8.640;2023-11-19T13:06:52;25.30;70.00
26342;DHT22;14054;50.108;8.640;2023-11-19T13:09:26;24.90;66.70
26342;DHT22;14054;50.108;8.640;2023-11-19T13:11:52;23.80;68.40
26342;DHT22;14054;50.108;8.640;2023-11-19T13:14:18;22.90;72.60
26342;DHT22;14054;50.108;8.640;2023-11-19T13:16:44;23.60;73.00
26342;DHT22;14054;50.108;8.640;2023-11-19T13:19:12;24.60;67.10
26342;DHT22;14054;50.108;8.640;2023-11-19T13:21:38;23.90;68.20
26342;DHT22;14054;50.108;8.640;2023-11-19T13:24:06;24.70;65.10
26342;DHT22;14054;50.108;8.640;2023-11-19T13:26:31;23.40;69.60
26342;DHT22;14054;50.108;8.640;2023-11-19T13:28:57;22.90;67.70
26342;DHT22;14054;50.108;8.640;2023-11-19T13:31:22;21.10;75.00
26342;DHT22;14054;50.108;8.640;2023-11-19T13:33:48;19.50;79.90
26342;DHT22;14054;50.108;8.640;2023-11-19T13:36:14;18.40;85.00
26342;DHT22;14054;50.108;8.640;2023-11-19T13:38:39;17.30;88.60
26342;DHT22;14054;50.108;8.640;2023-11-19T13:41:07;18.00;90.30
26342;DHT22;14054;50.108;8.640;2023-11-19T13:43:35;20.30;81.50
26342;DHT22;14054;50.108;8.640;2023-11-19T13:46:00;21.70;74.90
26342;DHT22;14054;50.108;8.640;2023-11-19T13:48:26;22.10;72.40
26342;DHT22;14054;50.108;8.640;2023-11-19T13:50:52;23.10;70.20
26342;DHT22;14054;50.108;8.640;2023-11-19T13:53:18;23.70;67.50
26342;DHT22;14054;50.108;8.640;2023-11-19T13:55:44;24.10;65.00
26342;DHT22;14054;50.108;8.640;2023-11-19T13:58:10;24.60;63.90
26342;DHT22;14054;50.108;8.640;2023-11-19T14:00:36;24.60;62.40
26342;DHT22;14054;50.108;8.640;2023-11-19T14:03:02;24.50;61.10
26342;DHT22;14054;50.108;8.640;2023-11-19T14:05:28;24.20;63.20
26342;DHT22;14054;50.108;8.640;2023-11-19T14:07:53;24.00;61.70
26342;DHT22;14054;50.108;8.640;2023-11-19T14:10:21;22.70;64.00
26342;DHT22;14054;50.108;8.640;2023-11-19T14:12:46;22.20;66.00
26342;DHT22;14054;50.108;8.640;2023-11-19T14:15:12;22.00;66.40
26342;DHT22;14054;50.108;8.640;2023-11-19T14:17:38;21.60;67.40
26342;DHT22;14054;50.108;8.640;2023-11-19T14:20:04;20.80;68.50
26342;DHT22;14054;50.108;8.640;2023-11-19T14:22:41;19.70;71.80
26342;DHT22;14054;50.108;8.640;2023-11-19T14:25:07;18.40;74.50
26342;DHT22;14054;50.108;8.640;2023-11-19T14:27:40;17.30;77.10
26342;DHT22;14054;50.108;8.640;2023-11-19T14:30:10;16.60;80.10
26342;DHT22;14054;50.108;8.640;2023-11-19T14:32:37;16.30;81.70
26342;DHT22;14054;50.108;8.640;2023-11-19T14:35:03;15.90;83.40
26342;DHT22;14054;50.108;8.640;2023-11-19T14:37:29;15.70;85.30
26342;DHT22;14054;50.108;8.640;2023-11-19T14:39:56;15.50;86.60
26342;DHT22;14054;50.108;8.640;2023-11-19T14:42:23;15.30;88.20
26342;DHT22;14054;50.108;8.640;2023-11-19T14:44:50;15.00;89.30
26342;DHT22;14054;50.108;8.640;2023-11-19T14:47:17;14.90;90.30
26342;DHT22;14054;50.108;8.640;2023-11-19T14:49:43;14.80;90.80
26342;DHT22;14054;50.108;8.640;2023-11-19T14:52:08;14.60;91.20
26342;DHT22;14054;50.108;8.640;2023-11-19T14:54:35;14.50;91.70
26342;DHT22;14054;50.108;8.640;2023-11-19T14:57:01;14.50;92.30
26342;DHT22;14054;50.108;8.640;2023-11-19T14:59:26;14.40;92.50
26342;DHT22;14054;50.108;8.640;2023-11-19T15:01:53;14.40;92.40
26342;DHT22;14054;50.108;8.640;2023-11-19T15:04:19;14.40;92.60
26342;DHT22;14054;50.108;8.640;2023-11-19T15:06:44;14.30;92.80
26342;DHT22;14054;50.108;8.640;2023-11-19T15:09:10;14.30;93.10
26342;DHT22;14054;50.108;8.640;2023-11-19T15:11:41;14.20;93.50
26342;DHT22;14054;50.108;8.640;2023-11-19T15:14:07;14.10;94.00
26342;DHT22;14054;50.108;8.640;2023-11-19T15:16:32;14.10;94.30
26342;DHT22;14054;50.108;8.640;2023-11-19T15:18:59;14.00;94.20
26342;DHT22;14054;50.108;8.640;2023-11-19T15:21:28;14.00;94.20
26342;DHT22;14054;50.108;8.640;2023-11-19T15:23:55;13.90;94.50
26342;DHT22;14054;50.108;8.640;2023-11-19T15:26:21;13.90;94.70
26342;DHT22;14054;50.108;8.640;2023-11-19T15:28:47;13.80;95.00
26342;DHT22;14054;50.108;8.640;2023-11-19T15:31:12;13.80;95.20
26342;DHT22;14054;50.108;8.640;2023-11-19T15:33:39;13.70;95.60
26342;DHT22;14054;50.108;8.640;2023-11-19T15:36:05;13.60;95.90
26342;DHT22;14054;50.108;8.640;2023-11-19T15:38:36;13.60;96.30
26342;DHT22;14054;50.108;8.640;2023-11-19T15:41:02;13.50;96.50
26342;DHT22;14054;50.108;8.640;2023-11-19T15:43:30;13.50;96.60
26342;DHT22;14054;50.108;8.640;2023-11-19T15:45:56;13.40;96.90
26342;DHT22;14054;50.108;8.640;2023-11-19T15:48:22;13.40;97.30
26342;DHT22;14054;50.108;8.640;2023-11-19T15:50:47;13.30;97.50
26342;DHT22;14054;50.108;8.640;2023-11-19T15:53:13;13.20;97.90
26342;DHT22;14054;50.108;8.640;2023-11-19T15:55:38;13.20;98.30